AIRPORT ID: 20N

DATE: 2024-07-20 ZULU TIME: 16.15 LOCAL TIME: 12.15


METAR K20N 201615Z AUTO 20005KT 10SM 26/19 A3007

ALTIMETER: A3007 Q1018

DENSITY ALT: 1200 Ft

WIND DIRECT: 190

WIND SPEED: 5 Gust

WIND CONDITIONS:

VISIBILTY: 10SM 9999M

TEMPERATURE: 79 F 26 C

DEW POINT: 66 F 19 C

HUMID: 64%

LCL: Above 5,000 feet

RADIO CHECK: 1

ADVISARIES: 1

GREETINGS: 0

CONVERSATIONS: 27